createdAt,value
2023-03-23T15:59:58.087Z,94835.41
2023-03-23T16:03:42.838Z,94826.72
2023-03-23T16:07:25.851Z,94830.91
2023-03-23T16:11:09.082Z,94840.72
2023-03-23T16:14:51.851Z,94834.56
2023-03-23T16:18:35.933Z,94834.78
2023-03-23T16:22:18.800Z,94833.19
2023-03-23T16:26:01.834Z,94837.94
2023-03-23T16:30:02.279Z,94843.19
2023-03-23T16:33:48.176Z,94839.97
2023-03-23T16:37:33.363Z,94844.97
2023-03-23T16:41:17.294Z,94844.63
2023-03-23T16:45:00.029Z,94842.88
2023-03-23T16:48:42.895Z,94848.66
2023-03-23T16:52:27.212Z,94835.91
2023-03-23T16:56:10.282Z,94840.66
2023-03-23T16:59:52.998Z,94841.94
2023-03-23T17:03:35.777Z,94839.53
2023-03-23T17:07:18.732Z,94841.63
2023-03-23T17:11:02.876Z,94843.25
2023-03-23T17:14:47.847Z,94845.41
2023-03-23T17:18:39.659Z,94850.13
2023-03-23T17:22:22.347Z,94853.03
2023-03-23T17:26:07.155Z,94840.03
2023-03-23T17:29:50.191Z,94842.63
2023-03-23T17:33:32.948Z,94843.28
2023-03-23T17:37:15.658Z,94843.13
2023-03-23T17:40:58.883Z,94842.16
2023-03-23T17:44:46.002Z,94833.50
2023-03-23T17:48:28.722Z,94844.25
2023-03-23T17:52:11.392Z,94847.06
2023-03-23T17:55:54.432Z,94847.22
2023-03-23T17:59:37.573Z,94856.94
2023-03-23T18:03:21.751Z,94850.50
2023-03-23T18:07:04.500Z,94855.00
2023-03-23T18:10:47.197Z,94859.50
2023-03-23T18:14:29.992Z,94853.88
2023-03-23T18:18:12.725Z,94861.50
2023-03-23T18:21:56.815Z,94871.72
2023-03-23T18:25:39.751Z,94868.28
2023-03-23T18:29:22.552Z,94869.75
2023-03-23T18:33:05.333Z,94872.41
2023-03-23T18:36:48.063Z,94874.50
2023-03-23T18:40:32.129Z,94880.25
2023-03-23T18:44:14.856Z,94878.41
2023-03-23T18:47:57.576Z,94871.75
2023-03-23T18:51:40.326Z,94876.16
2023-03-23T18:55:23.841Z,94887.44
2023-03-23T18:59:07.890Z,94887.91
2023-03-23T19:02:51.903Z,94885.50
2023-03-23T19:06:36.089Z,94892.41
2023-03-23T19:10:20.825Z,94889.53
2023-03-23T19:14:03.852Z,94885.84
2023-03-23T19:17:48.074Z,94889.06
2023-03-23T19:21:31.918Z,94896.50
2023-03-23T19:25:15.241Z,94893.88
2023-03-23T19:32:43.956Z,94884.81
2023-03-23T19:36:28.593Z,94887.22
2023-03-23T19:40:31.377Z,94894.34
2023-03-23T19:44:15.003Z,94889.06
2023-03-23T19:47:57.996Z,94891.94
2023-03-23T19:51:42.124Z,94894.25
2023-03-23T19:55:24.762Z,94899.78
2023-03-23T19:59:09.538Z,94890.94
2023-03-23T20:02:52.186Z,94885.66
2023-03-23T20:06:35.362Z,94880.03
2023-03-23T20:10:19.776Z,94893.03
2023-03-23T20:14:02.605Z,94887.72
2023-03-23T20:17:45.411Z,94881.41
2023-03-23T20:21:28.311Z,94892.53
2023-03-23T20:25:11.577Z,94885.66
2023-03-23T20:28:56.562Z,94878.44
2023-03-23T20:32:40.608Z,94884.75
2023-03-23T20:36:29.742Z,94887.06
2023-03-23T20:40:14.617Z,94884.66
2023-03-23T20:43:59.729Z,94889.63
2023-03-23T20:47:43.044Z,94888.00
2023-03-23T20:51:25.779Z,94883.75
2023-03-23T20:55:09.631Z,94887.69
2023-03-23T20:58:52.556Z,94890.56
2023-03-23T21:02:36.593Z,94884.09
2023-03-23T21:06:19.568Z,94880.88
2023-03-23T21:10:02.337Z,94880.88
2023-03-23T21:13:45.686Z,94875.03
2023-03-23T21:17:28.313Z,94867.56
2023-03-23T21:21:14.949Z,94872.75
2023-03-23T21:24:59.045Z,94872.09
2023-03-23T21:28:42.357Z,94865.66
2023-03-23T21:32:25.082Z,94857.25
2023-03-23T21:36:08.426Z,94852.22
2023-03-23T21:39:52.517Z,94846.88
2023-03-23T21:43:35.180Z,94853.63
2023-03-23T21:47:18.118Z,94844.56
2023-03-23T21:51:06.379Z,94843.16
2023-03-23T21:54:49.368Z,94849.63
2023-03-23T21:58:34.023Z,94835.81
2023-03-23T22:02:17.360Z,94834.19
2023-03-23T22:06:06.668Z,94826.75
2023-03-23T22:09:49.526Z,94820.94
2023-03-23T22:13:35.608Z,94817.06
2023-03-23T22:17:18.674Z,94811.13
2023-03-23T22:21:01.595Z,94807.72
2023-03-23T22:24:44.353Z,94794.41
2023-03-23T22:28:27.654Z,94789.94
2023-03-23T22:32:11.858Z,94787.66
2023-03-23T22:35:54.603Z,94794.88
2023-03-23T22:39:37.526Z,94788.44
2023-03-23T22:43:20.294Z,94783.06
2023-03-23T22:47:03.008Z,94769.19
2023-03-23T22:50:47.844Z,94770.13
2023-03-23T22:54:30.657Z,94769.44
2023-03-23T22:58:14.063Z,94764.63
2023-03-23T23:01:57.392Z,94760.25
2023-03-23T23:05:42.678Z,94755.41
2023-03-23T23:09:27.488Z,94757.16
2023-03-23T23:13:11.253Z,94745.78
2023-03-23T23:16:54.100Z,94744.19
2023-03-23T23:20:37.283Z,94738.91
2023-03-23T23:24:20.080Z,94732.84
2023-03-23T23:28:08.856Z,94728.34
2023-03-23T23:31:51.630Z,94721.00
2023-03-23T23:35:37.012Z,94721.47
2023-03-23T23:39:19.816Z,94716.44
2023-03-23T23:43:04.533Z,94721.38
2023-03-23T23:46:47.339Z,94717.59
2023-03-23T23:50:30.172Z,94723.31
2023-03-23T23:54:14.607Z,94718.50
2023-03-23T23:57:57.657Z,94718.50
